Atka, AK

3:51 PM HDT on June 22, 2017 (GMT -0900)
Atka | | Change Station

Elev 56 ft 52.22 °N, 174.21 °W | Updated 15 minutes ago

Overcast
Overcast
48 °F
Feels Like 48 °F
N
23
Wind Variable Wind from SE
Gusts 29 mph

Today
High -- | Low -- °F
--% Chance of Precip.
Yesterday
High -- | Low -- °F
Precip. -- in
Pressure 30.21 in
Visibility 10.0 miles
Clouds Scattered Clouds 2300 ft
Mostly Cloudy 3700 ft
Overcast 4500 ft
Dew Point 37 °F
Humidity 66%
Rainfall 0.00 in
Snow Depth Not available.
6:15 AM 11:02 PM
Waning Crescent, 2% visible
METAR PAAK 230036Z 14020G25KT 10SM SCT023 BKN037 OVC045 09/03 A3021 RMK AO1
Pressure 30.21 in
Visibility 10.0 miles
Clouds Scattered Clouds 2300 ft
Mostly Cloudy 3700 ft
Overcast 4500 ft
Dew Point 37 °F
Humidity 66%
Rainfall 0.00 in
Snow Depth Not available.
6:15 AM 11:02 PM
Waning Crescent, 2% visible
METAR PAAK 230036Z 14020G25KT 10SM SCT023 BKN037 OVC045 09/03 A3021 RMK AO1

Get Severe Weather Alerts

Thanks for signing up!

Be on the lookout for a verification email in your inbox.

You'll start receiving the daily forecast at 6 AM.

×

10-Day Weather Forecast

Almanac

Astronomy

Jun. 22, 2017 Rise Set
Actual Time
Civil Twilight
Nautical Twilight
Astronomical Twilight
Moon
Length of Visible Light
Length of Day
Tomorrow will be .
, % of the Moon is Illuminated

Today's Extremes

State Highs State Lows

Community

WunderPhotos

Category 6

Welcome to Category 6. This is the collective home for Weather Underground's featured writeups by Dr. Jeff Masters (right), Bob Henson (left), Chris Burt, and other regular contributors.

Nearby

Air Quality

  Air Quality AQ Index Pollutant
Not available.

Snow Depth

Station Depth Elevation

Earthquake Activity

City Distance Mag. Time & Date
Minimum magnitude displayed is 2.5.

Coastal Water Temperatures

Place Temperature

Stations

Nearby Weather Stations

Station Location Temp. Windchill Dew Point Humidity Wind Precip. Elev Updated Type
                   

Watches & Warnings

There are currently no watches in effect.